Time;durP1;ratioP1;P1;durP2;ratioP2;P2;SDS_P1;SDS_P2;PMS_P1;PMS_P2;Temp;Humidity;BMP_temperature;BMP_pressure;BME280_temperature;BME280_humidity;BME280_pressure;Samples;Min_cycle;Max_cycle;Signal;HPM_P1;HPM_P2
2022/07/06 00:00:54;;;;;;;2.90;2.67;;;15.60;99.90;;;;;;5072552;28;20468;-89
2022/07/06 00:03:22;;;;;;;2.53;2.33;;;15.50;99.90;;;;;;5075671;28;20855;-89
2022/07/06 00:05:49;;;;;;;2.13;1.70;;;15.50;99.90;;;;;;5077636;28;20461;-89
2022/07/06 00:08:16;;;;;;;1.60;1.50;;;15.60;99.90;;;;;;5078625;28;20462;-89
2022/07/06 00:10:43;;;;;;;2.23;2.10;;;15.70;99.90;;;;;;5079079;28;20882;-89
2022/07/06 00:13:10;;;;;;;2.03;1.90;;;15.70;99.90;;;;;;5078349;28;20463;-89
2022/07/06 00:15:37;;;;;;;3.00;2.80;;;15.80;99.90;;;;;;5084137;28;20977;-89
2022/07/06 00:18:04;;;;;;;7.23;3.57;;;15.80;99.90;;;;;;5080059;28;20862;-89
2022/07/06 00:20:33;;;;;;;2.67;2.57;;;15.80;99.90;;;;;;5083792;28;20905;-89
2022/07/06 00:23:00;;;;;;;2.40;2.30;;;15.80;99.90;;;;;;5077373;28;20864;-89
2022/07/06 00:25:27;;;;;;;5.37;2.67;;;15.80;99.90;;;;;;5079626;28;20484;-89
2022/07/06 00:27:54;;;;;;;1.63;1.53;;;15.80;99.90;;;;;;5079354;28;20469;-89
2022/07/06 00:30:21;;;;;;;2.33;2.13;;;15.70;99.90;;;;;;5079545;28;20964;-89
2022/07/06 00:32:48;;;;;;;2.23;2.03;;;15.70;99.90;;;;;;5082463;28;20528;-89
2022/07/06 00:35:15;;;;;;;2.40;2.20;;;15.60;99.90;;;;;;5068894;28;21080;-89
2022/07/06 00:37:43;;;;;;;3.40;2.13;;;15.50;99.90;;;;;;5081865;28;20718;-89
2022/07/06 00:40:11;;;;;;;5.40;2.53;;;15.60;99.90;;;;;;5075728;28;20543;-89
2022/07/06 00:42:42;;;;;;;2.70;2.00;;;15.60;99.90;;;;;;5076816;28;20515;-89
2022/07/06 00:45:10;;;;;;;2.13;2.03;;;15.70;99.90;;;;;;5077097;28;20462;-89
2022/07/06 00:47:37;;;;;;;5.27;2.00;;;15.60;99.90;;;;;;5084904;28;20699;-89
2022/07/06 00:50:14;;;;;;;1.80;1.70;;;15.60;99.90;;;;;;5078363;28;20480;-89
2022/07/06 00:52:43;;;;;;;2.43;2.30;;;15.60;99.90;;;;;;5081941;28;20522;-89
2022/07/06 00:55:11;;;;;;;2.40;2.00;;;15.60;99.90;;;;;;5083716;28;20474;-89
2022/07/06 00:57:38;;;;;;;2.27;2.07;;;15.50;99.90;;;;;;5100778;28;20681;-89
2022/07/06 01:00:07;;;;;;;2.60;2.40;;;15.60;99.90;;;;;;5086128;28;20529;-89
2022/07/06 01:02:35;;;;;;;2.60;2.40;;;15.60;99.90;;;;;;5079327;28;20532;-89
2022/07/06 01:05:04;;;;;;;2.10;1.90;;;15.50;99.90;;;;;;5076959;28;20495;-89
2022/07/06 01:07:31;;;;;;;2.03;1.60;;;15.50;99.90;;;;;;5074355;28;20465;-89
2022/07/06 01:10:00;;;;;;;1.57;1.47;;;15.60;99.90;;;;;;5080218;28;20554;-89
2022/07/06 01:12:27;;;;;;;1.63;1.53;;;15.60;99.90;;;;;;5082279;28;20495;-89
2022/07/06 01:14:54;;;;;;;2.00;1.70;;;15.50;99.90;;;;;;5085551;28;20538;-89
2022/07/06 01:17:22;;;;;;;2.10;2.00;;;15.50;99.90;;;;;;5074400;28;20522;-89
2022/07/06 01:19:49;;;;;;;2.50;2.13;;;15.40;99.90;;;;;;5067900;28;20752;-88
2022/07/06 01:22:18;;;;;;;2.13;2.03;;;15.30;99.90;;;;;;5080961;28;20519;-89
2022/07/06 01:24:45;;;;;;;3.03;2.83;;;15.30;99.90;;;;;;5081963;28;21051;-89
2022/07/06 01:27:12;;;;;;;2.53;2.23;;;15.30;99.90;;;;;;5077584;28;20914;-88
2022/07/06 01:29:39;;;;;;;2.17;1.87;;;15.30;99.90;;;;;;5077897;28;20765;-89
2022/07/06 01:32:07;;;;;;;2.03;1.63;;;15.20;99.90;;;;;;5073811;28;20461;-89
2022/07/06 01:34:35;;;;;;;1.47;1.37;;;15.20;99.90;;;;;;5081505;28;20480;-90
2022/07/06 01:37:02;;;;;;;2.53;2.33;;;15.10;99.90;;;;;;5079192;28;20551;-89
2022/07/06 01:39:30;;;;;;;1.80;1.70;;;15.10;99.90;;;;;;5075085;28;20567;-90
2022/07/06 01:41:57;;;;;;;5.50;2.47;;;15.30;99.90;;;;;;5077841;28;20521;-90
2022/07/06 01:44:24;;;;;;;3.37;3.10;;;15.30;99.90;;;;;;5084637;28;20526;-90
2022/07/06 01:46:51;;;;;;;3.50;2.20;;;15.20;99.90;;;;;;5077897;28;20456;-89
2022/07/06 01:49:18;;;;;;;1.90;1.77;;;15.10;99.90;;;;;;5079163;28;21069;-90
2022/07/06 01:51:46;;;;;;;3.93;2.20;;;15.00;99.90;;;;;;5074028;28;20522;-89
2022/07/06 01:54:12;;;;;;;1.57;1.47;;;14.90;99.90;;;;;;5080870;28;20547;-89
2022/07/06 01:56:41;;;;;;;1.90;1.80;;;14.80;99.90;;;;;;5072572;28;20491;-89
2022/07/06 01:59:09;;;;;;;2.10;1.73;;;14.80;99.90;;;;;;5080073;28;20556;-89
2022/07/06 02:01:36;;;;;;;2.27;2.17;;;14.70;99.90;;;;;;5076175;28;22005;-89
2022/07/06 02:04:03;;;;;;;1.80;1.67;;;14.70;99.90;;;;;;5074914;28;20541;-89
2022/07/06 02:06:30;;;;;;;2.70;1.97;;;14.70;99.90;;;;;;5078004;28;20466;-89
2022/07/06 02:08:57;;;;;;;1.43;1.33;;;14.60;99.90;;;;;;5073906;28;20907;-89
2022/07/06 02:11:24;;;;;;;2.00;1.87;;;14.60;99.90;;;;;;5076078;28;20593;-89
2022/07/06 02:13:53;;;;;;;1.50;1.40;;;14.60;99.90;;;;;;5071748;28;20528;-89
2022/07/06 02:16:20;;;;;;;2.07;1.87;;;14.60;99.90;;;;;;5082445;28;20541;-89
2022/07/06 02:18:47;;;;;;;1.73;1.63;;;14.60;99.90;;;;;;5078556;28;20535;-89
2022/07/06 02:21:14;;;;;;;2.10;2.00;;;14.70;99.90;;;;;;5076324;28;20928;-89
2022/07/06 02:23:41;;;;;;;2.03;1.87;;;14.70;99.90;;;;;;5076770;28;20670;-90
2022/07/06 02:26:08;;;;;;;2.57;2.10;;;14.70;99.90;;;;;;5078688;28;20644;-89
2022/07/06 02:28:35;;;;;;;3.20;1.90;;;14.60;99.90;;;;;;5070171;28;20455;-89
2022/07/06 02:31:03;;;;;;;2.43;2.30;;;14.60;99.90;;;;;;5077574;28;20550;-89
2022/07/06 02:33:31;;;;;;;1.93;1.73;;;14.50;99.90;;;;;;5074137;28;20492;-89
2022/07/06 02:35:58;;;;;;;1.80;1.70;;;14.50;99.90;;;;;;5078447;28;20464;-89
2022/07/06 02:38:25;;;;;;;2.50;2.30;;;14.50;99.90;;;;;;5069465;28;20471;-89
2022/07/06 02:40:52;;;;;;;2.27;1.40;;;14.40;99.90;;;;;;5072282;28;20487;-89
2022/07/06 02:43:19;;;;;;;2.00;1.90;;;14.40;99.90;;;;;;5076662;28;20920;-89
2022/07/06 02:45:46;;;;;;;2.20;2.07;;;14.50;99.90;;;;;;5074532;28;20465;-89
2022/07/06 02:48:14;;;;;;;1.87;1.77;;;14.70;99.90;;;;;;5077246;28;20463;-89
2022/07/06 02:50:41;;;;;;;2.57;2.37;;;14.80;99.90;;;;;;5079433;28;20552;-89
2022/07/06 02:53:08;;;;;;;2.17;1.97;;;14.80;99.90;;;;;;5075578;28;20519;-89
2022/07/06 02:55:35;;;;;;;3.40;2.00;;;14.80;99.90;;;;;;5070992;28;20555;-88
2022/07/06 02:58:02;;;;;;;2.13;2.03;;;14.60;99.90;;;;;;5079524;28;20818;-89
2022/07/06 03:00:29;;;;;;;1.73;1.63;;;14.50;99.90;;;;;;5077187;28;20817;-89
2022/07/06 03:02:56;;;;;;;2.67;2.00;;;14.30;99.90;;;;;;5073962;28;20536;-89
2022/07/06 03:05:25;;;;;;;1.07;1.03;;;14.10;99.90;;;;;;5073299;28;20572;-89
2022/07/06 03:07:52;;;;;;;1.80;1.70;;;14.10;99.90;;;;;;5076800;28;20520;-89
2022/07/06 03:10:19;;;;;;;1.47;1.37;;;14.00;99.90;;;;;;5071116;28;21049;-89
2022/07/06 03:12:46;;;;;;;1.57;1.47;;;14.20;99.90;;;;;;5074113;28;20460;-89
2022/07/06 03:15:13;;;;;;;1.90;1.80;;;14.10;99.90;;;;;;5080557;28;20469;-89
2022/07/06 03:17:40;;;;;;;5.93;1.80;;;14.10;99.90;;;;;;5079413;28;20811;-89
2022/07/06 03:20:08;;;;;;;7.63;2.27;;;14.10;99.90;;;;;;5076049;28;20461;-88
2022/07/06 03:22:36;;;;;;;1.87;1.30;;;14.30;99.90;;;;;;5078959;28;20524;-88
2022/07/06 03:25:03;;;;;;;1.50;1.40;;;14.40;99.90;;;;;;5075376;28;20462;-89
2022/07/06 03:27:30;;;;;;;4.03;1.90;;;14.40;99.90;;;;;;5080426;28;20467;-90
2022/07/06 03:29:57;;;;;;;1.97;1.77;;;14.60;99.90;;;;;;5079554;28;20536;-88
2022/07/06 03:32:24;;;;;;;1.80;1.70;;;14.50;99.90;;;;;;5078083;28;20455;-88
2022/07/06 03:34:51;;;;;;;1.50;1.40;;;14.70;99.90;;;;;;5082991;28;21041;-88
2022/07/06 03:37:18;;;;;;;2.17;2.07;;;14.60;99.90;;;;;;5076578;28;20466;-87
2022/07/06 03:39:46;;;;;;;1.90;1.47;;;14.60;99.90;;;;;;5080901;28;20548;-87
2022/07/06 03:42:13;;;;;;;2.20;2.00;;;14.70;99.90;;;;;;5076105;28;20460;-88
2022/07/06 03:44:40;;;;;;;1.83;1.70;;;14.70;99.90;;;;;;5077410;28;20458;-87
2022/07/06 03:47:08;;;;;;;1.73;1.63;;;14.70;99.90;;;;;;5077515;28;20925;-89
2022/07/06 03:49:35;;;;;;;1.57;1.47;;;14.60;99.90;;;;;;5081312;28;20462;-87
2022/07/06 03:52:02;;;;;;;3.07;1.40;;;14.60;99.90;;;;;;5071440;28;20537;-87
2022/07/06 03:54:29;;;;;;;1.00;1.00;;;14.60;99.90;;;;;;5090443;28;20496;-88
2022/07/06 03:56:57;;;;;;;1.90;1.13;;;14.60;99.90;;;;;;5085893;28;20458;-87
2022/07/06 03:59:24;;;;;;;1.27;1.17;;;14.60;99.90;;;;;;5073374;28;20471;-87
2022/07/06 04:01:52;;;;;;;1.73;1.63;;;14.70;99.90;;;;;;5081946;28;20452;-87
2022/07/06 04:04:19;;;;;;;1.10;1.00;;;14.80;99.90;;;;;;5071051;28;20505;-87
2022/07/06 04:06:46;;;;;;;4.20;1.30;;;14.80;99.90;;;;;;5079448;28;20461;-88
2022/07/06 04:09:13;;;;;;;1.67;1.57;;;14.80;99.90;;;;;;5076257;28;20451;-88
2022/07/06 04:11:40;;;;;;;2.63;1.37;;;14.70;99.90;;;;;;5076988;28;20507;-88
2022/07/06 04:14:09;;;;;;;1.50;1.40;;;14.90;99.90;;;;;;5076601;28;20511;-88
2022/07/06 04:16:35;;;;;;;2.50;1.00;;;14.90;99.90;;;;;;5084034;28;20462;-88
2022/07/06 04:19:03;;;;;;;2.40;1.60;;;15.00;99.90;;;;;;5079010;28;20551;-89
2022/07/06 04:21:30;;;;;;;4.50;1.87;;;15.00;99.90;;;;;;5079067;28;20499;-89
2022/07/06 04:23:57;;;;;;;1.30;1.20;;;15.10;99.90;;;;;;5073078;28;20466;-89
2022/07/06 04:26:24;;;;;;;1.20;1.20;;;15.10;99.90;;;;;;5070846;28;20515;-88
2022/07/06 04:28:51;;;;;;;1.30;1.20;;;15.30;99.90;;;;;;5074741;28;20461;-89
2022/07/06 04:31:19;;;;;;;1.13;1.03;;;15.40;99.90;;;;;;5064990;28;20477;-88
2022/07/06 04:33:46;;;;;;;3.30;1.40;;;15.50;99.90;;;;;;5075271;28;21042;-88
2022/07/06 04:36:13;;;;;;;1.97;1.87;;;15.70;99.90;;;;;;5073664;28;20473;-88
2022/07/06 04:38:40;;;;;;;5.33;2.03;;;15.80;99.90;;;;;;5075542;28;20479;-88
2022/07/06 04:41:07;;;;;;;2.03;1.80;;;16.00;99.90;;;;;;5081728;28;20520;-88
2022/07/06 04:43:34;;;;;;;2.93;1.33;;;16.00;99.90;;;;;;5081788;28;20823;-89
2022/07/06 04:46:01;;;;;;;1.37;1.23;;;16.10;99.90;;;;;;5075938;28;20543;-89
2022/07/06 04:48:30;;;;;;;1.37;1.27;;;16.10;99.90;;;;;;5072562;28;20914;-89
2022/07/06 04:50:57;;;;;;;1.30;1.20;;;16.20;99.90;;;;;;5070273;28;20966;-89
2022/07/06 04:53:24;;;;;;;1.00;1.00;;;16.10;99.90;;;;;;5070579;28;20794;-89
2022/07/06 04:55:51;;;;;;;1.33;1.23;;;16.20;99.90;;;;;;5069741;28;20958;-89
2022/07/06 04:58:18;;;;;;;1.10;1.07;;;16.20;99.90;;;;;;5071850;28;20465;-89
2022/07/06 05:00:45;;;;;;;1.63;1.50;;;16.20;99.90;;;;;;5076413;28;20550;-89
2022/07/06 05:03:12;;;;;;;1.10;1.00;;;16.20;99.90;;;;;;5080892;28;20446;-89
2022/07/06 05:05:41;;;;;;;2.17;1.20;;;16.20;99.90;;;;;;5077136;28;20468;-89
2022/07/06 05:08:08;;;;;;;2.30;1.60;;;16.30;99.90;;;;;;5070913;28;20517;-89
2022/07/06 05:10:35;;;;;;;1.40;1.30;;;16.30;99.90;;;;;;5083736;28;20514;-87
2022/07/06 05:13:02;;;;;;;1.10;1.00;;;16.50;99.90;;;;;;5076317;28;20543;-87
2022/07/06 05:15:30;;;;;;;1.57;1.47;;;16.50;99.90;;;;;;5074646;28;20475;-87
2022/07/06 05:17:57;;;;;;;1.53;1.27;;;16.50;99.90;;;;;;5080938;28;20568;-87
2022/07/06 05:20:24;;;;;;;1.10;1.10;;;16.70;99.90;;;;;;5071860;28;20466;-87
2022/07/06 05:22:52;;;;;;;2.93;0.80;;;16.80;99.90;;;;;;5072435;28;20860;-88
2022/07/06 05:25:19;;;;;;;1.30;1.20;;;17.00;99.90;;;;;;5078754;28;20469;-86
2022/07/06 05:27:46;;;;;;;1.13;0.83;;;17.20;99.90;;;;;;5081821;28;20856;-87
2022/07/06 05:30:15;;;;;;;1.47;1.00;;;17.40;99.90;;;;;;5073870;28;20527;-87
2022/07/06 05:32:42;;;;;;;1.30;1.20;;;17.50;99.90;;;;;;5081031;28;20873;-87
2022/07/06 05:35:09;;;;;;;1.80;1.00;;;17.60;99.90;;;;;;5079191;28;21011;-86
2022/07/06 05:37:36;;;;;;;1.77;0.90;;;17.70;99.90;;;;;;5079703;28;20794;-87
2022/07/06 05:40:05;;;;;;;1.43;1.33;;;17.70;99.90;;;;;;5072651;28;20551;-88
2022/07/06 05:42:32;;;;;;;1.93;1.20;;;17.90;99.90;;;;;;5070211;28;20456;-87
2022/07/06 05:44:59;;;;;;;1.00;0.90;;;17.90;99.90;;;;;;5078095;28;21150;-87
2022/07/06 05:50:14;;;;;;;1.00;1.00;;;18.20;99.90;;;;;;5073021;28;20820;-87
2022/07/06 05:52:41;;;;;;;0.60;0.60;;;18.20;99.90;;;;;;5074399;28;20548;-87
2022/07/06 05:55:10;;;;;;;0.80;0.80;;;18.30;99.90;;;;;;5072556;28;20458;-86
2022/07/06 05:57:37;;;;;;;1.10;0.80;;;18.40;99.90;;;;;;5070323;28;20467;-87
2022/07/06 06:00:06;;;;;;;0.80;0.80;;;18.70;99.90;;;;;;5073469;28;20523;-87
2022/07/06 06:02:40;;;;;;;1.97;0.90;;;18.90;99.90;;;;;;5078308;28;20467;-89
2022/07/06 06:05:08;;;;;;;0.90;0.90;;;18.90;99.90;;;;;;5072446;28;20459;-89
2022/07/06 06:07:36;;;;;;;1.00;1.00;;;19.10;99.90;;;;;;5071513;28;20471;-87
2022/07/06 06:10:05;;;;;;;1.37;1.27;;;19.10;99.90;;;;;;5070174;28;20489;-87
2022/07/06 06:12:33;;;;;;;0.90;0.80;;;19.20;99.90;;;;;;5072933;28;21327;-87
2022/07/06 06:15:00;;;;;;;1.50;1.07;;;19.40;99.90;;;;;;5078582;28;21006;-87
2022/07/06 06:17:28;;;;;;;1.20;1.10;;;19.50;99.90;;;;;;5061738;28;20598;-88
2022/07/06 06:19:55;;;;;;;0.97;0.90;;;19.50;99.90;;;;;;5069092;28;20474;-87
2022/07/06 06:22:22;;;;;;;0.80;0.80;;;19.60;99.90;;;;;;5071406;28;20541;-88
2022/07/06 06:24:49;;;;;;;0.93;0.70;;;19.60;99.90;;;;;;5074614;28;20803;-87
2022/07/06 06:27:16;;;;;;;2.40;0.77;;;19.70;99.90;;;;;;5074749;28;20475;-87
2022/07/06 06:29:45;;;;;;;1.60;1.50;;;19.90;99.90;;;;;;5070241;28;20472;-89
2022/07/06 06:32:12;;;;;;;2.00;0.70;;;20.00;99.90;;;;;;5071824;28;20507;-88
2022/07/06 06:34:40;;;;;;;0.80;0.80;;;20.10;99.90;;;;;;5072338;28;20659;-88
2022/07/06 06:37:07;;;;;;;1.40;1.30;;;20.20;99.90;;;;;;5073145;28;20798;-89
2022/07/06 06:39:34;;;;;;;0.93;0.90;;;20.30;99.90;;;;;;5072872;28;20528;-88
2022/07/06 06:42:01;;;;;;;0.60;0.60;;;20.30;99.90;;;;;;5072322;28;20943;-88
2022/07/06 06:44:28;;;;;;;0.90;0.77;;;20.10;99.90;;;;;;5067899;28;20960;-88
2022/07/06 06:46:56;;;;;;;0.90;0.70;;;20.20;99.90;;;;;;5076399;28;20497;-89
2022/07/06 06:49:23;;;;;;;0.97;0.80;;;20.30;99.90;;;;;;5071008;28;20467;-88
2022/07/06 06:51:51;;;;;;;1.27;0.80;;;20.40;99.90;;;;;;5075799;28;21056;-88
2022/07/06 06:54:18;;;;;;;0.70;0.70;;;20.40;99.90;;;;;;5080694;28;20910;-89
2022/07/06 06:56:45;;;;;;;0.63;0.63;;;20.50;99.90;;;;;;5085618;28;20457;-89
2022/07/06 06:59:12;;;;;;;1.70;1.00;;;20.60;99.90;;;;;;5076873;28;20457;-89
2022/07/06 07:01:39;;;;;;;1.00;0.90;;;20.90;99.90;;;;;;5081178;28;20478;-89
2022/07/06 07:04:07;;;;;;;0.70;0.70;;;21.10;99.90;;;;;;5075633;28;22992;-88
2022/07/06 07:06:35;;;;;;;0.90;0.73;;;21.20;99.90;;;;;;5063751;28;20545;-89
2022/07/06 07:09:02;;;;;;;0.80;0.80;;;21.10;99.90;;;;;;5072146;28;20461;-89
2022/07/06 07:11:29;;;;;;;2.30;0.80;;;21.10;99.90;;;;;;5074501;28;20491;-89
2022/07/06 07:14:05;;;;;;;1.90;1.10;;;21.10;99.90;;;;;;5076126;28;20470;-90
2022/07/06 07:16:32;;;;;;;1.27;0.90;;;21.20;99.90;;;;;;5077195;28;20986;-89
2022/07/06 07:18:59;;;;;;;1.53;0.80;;;21.20;99.90;;;;;;5072438;28;20502;-90
2022/07/06 07:21:27;;;;;;;1.37;0.73;;;21.20;99.90;;;;;;5078620;28;20523;-90
2022/07/06 07:23:54;;;;;;;3.10;0.87;;;21.20;99.90;;;;;;5078230;28;20462;-90
2022/07/06 07:26:21;;;;;;;1.33;1.03;;;21.20;99.90;;;;;;5075952;28;20489;-90
2022/07/06 07:28:48;;;;;;;0.70;0.70;;;21.40;99.90;;;;;;5076653;28;20469;-91
2022/07/06 07:31:15;;;;;;;1.13;1.13;;;21.40;99.90;;;;;;5079277;28;20471;-90
2022/07/06 07:33:42;;;;;;;1.00;1.00;;;21.30;99.90;;;;;;5082290;28;20478;-90
2022/07/06 07:36:09;;;;;;;1.83;1.00;;;21.50;99.90;;;;;;5083124;28;20507;-89
2022/07/06 07:38:38;;;;;;;1.00;1.00;;;21.40;99.90;;;;;;5082543;28;20504;-93
2022/07/06 07:41:06;;;;;;;1.20;0.93;;;21.40;99.90;;;;;;5078276;28;20501;-90
2022/07/06 07:43:33;;;;;;;1.07;1.07;;;21.70;99.90;;;;;;5070387;28;20866;-88
2022/07/06 07:46:00;;;;;;;1.47;0.90;;;22.00;99.90;;;;;;5077498;28;20539;-90
2022/07/06 07:48:27;;;;;;;0.80;0.80;;;22.10;99.90;;;;;;5074334;28;20944;-89
2022/07/06 07:50:54;;;;;;;1.10;0.87;;;22.10;98.60;;;;;;5076344;28;20458;-89
2022/07/06 07:53:21;;;;;;;1.87;1.00;;;22.10;99.40;;;;;;5079325;28;20532;-88
2022/07/06 07:55:49;;;;;;;0.87;0.87;;;22.20;98.50;;;;;;5076529;28;20662;-89
2022/07/06 07:58:16;;;;;;;0.80;0.80;;;22.50;99.90;;;;;;5086719;28;20463;-89
2022/07/06 08:00:43;;;;;;;1.07;0.97;;;22.40;99.20;;;;;;5091846;28;20464;-88
2022/07/06 08:03:10;;;;;;;1.40;0.97;;;22.20;99.50;;;;;;5082004;28;20837;-88
2022/07/06 08:05:37;;;;;;;1.50;1.13;;;22.50;99.30;;;;;;5074814;28;20559;-90
2022/07/06 08:08:05;;;;;;;0.70;0.63;;;22.40;98.00;;;;;;5080599;28;20528;-90
2022/07/06 08:10:32;;;;;;;1.20;1.10;;;22.70;98.40;;;;;;5071213;28;20821;-90
2022/07/06 08:13:00;;;;;;;1.10;1.07;;;22.80;98.50;;;;;;5084182;28;20678;-90
2022/07/06 08:15:28;;;;;;;0.90;0.90;;;23.00;98.00;;;;;;5081356;28;20500;-90
2022/07/06 08:17:54;;;;;;;1.30;0.90;;;22.90;96.40;;;;;;5081798;28;20672;-90
2022/07/06 08:20:22;;;;;;;0.93;0.93;;;22.90;98.70;;;;;;5081247;28;20498;-90
2022/07/06 08:22:48;;;;;;;0.90;0.90;;;23.00;97.60;;;;;;5088308;28;20519;-89
2022/07/06 08:25:16;;;;;;;1.17;1.10;;;23.10;97.10;;;;;;5081855;28;20531;-90
2022/07/06 08:27:44;;;;;;;1.27;1.00;;;23.20;96.50;;;;;;5089613;28;20802;-91
2022/07/06 08:30:13;;;;;;;1.00;1.00;;;23.30;96.90;;;;;;5077282;28;20531;-91
2022/07/06 08:32:40;;;;;;;0.80;0.80;;;23.60;96.80;;;;;;5084738;28;20485;-90
2022/07/06 08:35:08;;;;;;;0.80;0.80;;;23.60;95.90;;;;;;5093188;28;20531;-90
2022/07/06 08:37:35;;;;;;;2.73;0.87;;;23.60;96.30;;;;;;5081672;28;21520;-91
2022/07/06 08:40:02;;;;;;;1.00;1.00;;;23.80;95.10;;;;;;5076525;28;20488;-91
2022/07/06 08:42:31;;;;;;;0.80;0.80;;;23.90;95.00;;;;;;5072989;28;20772;-91
2022/07/06 08:45:00;;;;;;;1.43;1.07;;;23.90;95.30;;;;;;5071907;28;20462;-91
2022/07/06 08:47:29;;;;;;;0.80;0.80;;;23.80;94.10;;;;;;5072090;28;20462;-90
2022/07/06 08:49:56;;;;;;;0.80;0.77;;;23.60;95.00;;;;;;5070464;28;20466;-91
2022/07/06 08:52:24;;;;;;;0.70;0.70;;;23.80;94.60;;;;;;5074693;28;20688;-89
2022/07/06 08:54:52;;;;;;;1.20;1.17;;;23.90;94.00;;;;;;5079383;28;20467;-89
2022/07/06 08:57:19;;;;;;;0.73;0.73;;;23.70;93.80;;;;;;5076952;28;20557;-90
2022/07/06 08:59:46;;;;;;;1.00;1.00;;;23.80;94.40;;;;;;5076668;28;20481;-88
2022/07/06 09:02:14;;;;;;;0.90;0.70;;;23.70;91.90;;;;;;5076548;28;20459;-88
2022/07/06 09:04:44;;;;;;;1.07;0.90;;;24.00;94.50;;;;;;5076855;28;20465;-89
2022/07/06 09:07:11;;;;;;;0.70;0.70;;;24.10;94.30;;;;;;5078907;28;20875;-89
2022/07/06 09:09:39;;;;;;;2.80;1.00;;;24.20;90.80;;;;;;5076121;28;20489;-89
2022/07/06 09:12:12;;;;;;;0.93;0.93;;;24.20;92.30;;;;;;5078487;28;20564;-89
2022/07/06 09:14:39;;;;;;;1.37;1.27;;;24.40;90.60;;;;;;5079989;28;20769;-91
2022/07/06 09:17:07;;;;;;;1.33;0.80;;;24.20;91.70;;;;;;5074629;28;20459;-90
2022/07/06 09:19:35;;;;;;;0.93;0.80;;;24.40;91.60;;;;;;5076733;28;20490;-89
2022/07/06 09:22:05;;;;;;;1.40;0.70;;;24.40;90.70;;;;;;5082453;28;20586;-86
2022/07/06 09:24:32;;;;;;;0.87;0.87;;;24.40;90.20;;;;;;5073033;28;20502;-89
2022/07/06 09:27:00;;;;;;;28.57;3.50;;;24.40;92.00;;;;;;5076473;28;20462;-88
2022/07/06 09:29:31;;;;;;;1.10;0.77;;;24.50;90.00;;;;;;5071746;28;20508;-88
2022/07/06 09:31:59;;;;;;;1.17;0.70;;;24.40;89.20;;;;;;5076109;28;20523;-89
2022/07/06 09:34:41;;;;;;;0.80;0.80;;;24.20;90.00;;;;;;5081654;28;20475;-88
2022/07/06 09:37:09;;;;;;;0.60;0.53;;;24.50;90.50;;;;;;5076557;28;20463;-89
2022/07/06 09:39:36;;;;;;;1.20;0.87;;;24.70;90.50;;;;;;5074629;28;20729;-88
2022/07/06 09:42:05;;;;;;;2.00;0.70;;;24.90;90.80;;;;;;5073697;28;20535;-88
2022/07/06 09:44:33;;;;;;;0.80;0.80;;;25.10;89.60;;;;;;5078900;28;20611;-88
2022/07/06 09:47:02;;;;;;;0.80;0.80;;;25.20;88.40;;;;;;5074693;28;20464;-89
2022/07/06 09:49:30;;;;;;;0.80;0.80;;;24.90;89.70;;;;;;5082542;28;20459;-88
2022/07/06 09:51:58;;;;;;;0.70;0.60;;;25.00;88.90;;;;;;5092767;28;20511;-88
2022/07/06 09:54:27;;;;;;;2.30;1.40;;;25.40;86.50;;;;;;5081852;28;21170;-90
2022/07/06 09:56:56;;;;;;;1.33;0.70;;;25.30;86.60;;;;;;5078833;28;20458;-88
2022/07/06 09:59:26;;;;;;;0.80;0.80;;;25.50;87.60;;;;;;5078353;28;20455;-89
2022/07/06 10:01:54;;;;;;;0.70;0.70;;;25.40;87.70;;;;;;5073990;28;20565;-88
2022/07/06 10:04:21;;;;;;;0.60;0.60;;;25.30;86.80;;;;;;5069694;28;20464;-89
2022/07/06 10:06:49;;;;;;;0.90;0.90;;;25.00;83.70;;;;;;5078016;28;20447;-89
2022/07/06 10:09:18;;;;;;;0.73;0.73;;;24.80;85.60;;;;;;5068086;28;20479;-89
2022/07/06 10:11:50;;;;;;;3.90;0.70;;;24.80;87.70;;;;;;5070726;28;20544;-91
2022/07/06 10:14:21;;;;;;;0.70;0.70;;;25.00;90.70;;;;;;5078844;28;20483;-92
2022/07/06 10:16:49;;;;;;;1.20;1.10;;;25.00;81.80;;;;;;5072544;28;20817;-92
2022/07/06 10:19:18;;;;;;;0.80;0.80;;;25.00;83.70;;;;;;5075411;28;20467;-92
2022/07/06 10:21:45;;;;;;;0.70;0.70;;;24.60;81.90;;;;;;5077061;28;20463;-93
2022/07/06 10:24:13;;;;;;;0.90;0.90;;;24.70;87.50;;;;;;5073452;28;20471;-92
2022/07/06 10:26:41;;;;;;;0.70;0.70;;;24.60;83.40;;;;;;5073740;28;20463;-92
2022/07/06 10:29:10;;;;;;;0.70;0.70;;;24.70;86.10;;;;;;5076227;28;20459;-92
2022/07/06 10:31:41;;;;;;;1.67;1.00;;;24.60;86.40;;;;;;5076316;28;20630;-93
2022/07/06 10:34:12;;;;;;;0.97;0.87;;;24.80;83.30;;;;;;5075860;28;20487;-92
2022/07/06 10:36:40;;;;;;;0.80;0.70;;;24.80;82.10;;;;;;5074030;28;20839;-92
2022/07/06 10:41:48;;;;;;;0.63;0.63;;;24.50;81.30;;;;;;5070709;28;20461;-95
2022/07/06 10:44:22;;;;;;;0.60;0.60;;;24.70;83.70;;;;;;5069869;28;20471;-94
2022/07/06 10:46:54;;;;;;;0.80;0.80;;;24.80;80.90;;;;;;5070244;28;20488;-95
2022/07/06 10:49:22;;;;;;;1.10;0.60;;;24.80;84.30;;;;;;5065737;28;20464;-94
2022/07/06 10:51:50;;;;;;;0.90;0.70;;;25.10;86.60;;;;;;5084424;28;20890;-95
2022/07/06 10:54:18;;;;;;;0.60;0.60;;;25.10;82.50;;;;;;5083527;28;20906;-95
2022/07/06 10:56:46;;;;;;;0.90;0.70;;;25.10;79.30;;;;;;5082961;28;20875;-93
2022/07/06 10:59:14;;;;;;;0.60;0.60;;;25.10;77.70;;;;;;5080462;28;20450;-94
2022/07/06 11:02:13;;;;;;;0.70;0.70;;;25.20;76.00;;;;;;5074330;28;20540;-94
2022/07/06 11:04:41;;;;;;;0.50;0.50;;;25.40;83.10;;;;;;5073282;28;20458;-95
2022/07/06 11:07:10;;;;;;;0.70;0.70;;;25.60;80.90;;;;;;5080063;28;20467;-95
2022/07/06 11:09:38;;;;;;;0.90;0.73;;;25.60;74.20;;;;;;5077619;28;21002;-94
2022/07/06 11:12:18;;;;;;;1.37;0.77;;;25.30;72.00;;;;;;5078948;28;20470;-94
2022/07/06 11:14:46;;;;;;;1.13;0.67;;;25.30;75.20;;;;;;5077927;28;20442;-95
2022/07/06 11:17:15;;;;;;;2.30;0.83;;;25.20;70.60;;;;;;5071450;28;20785;-90
2022/07/06 11:19:50;;;;;;;1.00;0.70;;;25.20;74.60;;;;;;5073071;28;20488;-90
2022/07/06 11:22:19;;;;;;;0.90;0.70;;;25.20;76.50;;;;;;5076302;28;20469;-91
2022/07/06 11:24:47;;;;;;;0.67;0.60;;;25.60;73.00;;;;;;5075731;28;20478;-90
2022/07/06 11:27:14;;;;;;;1.20;0.90;;;25.70;77.00;;;;;;5074187;28;20466;-92
2022/07/06 11:29:41;;;;;;;0.60;0.60;;;26.00;74.50;;;;;;5068870;28;20458;-91
2022/07/06 11:32:10;;;;;;;1.27;1.17;;;25.80;71.30;;;;;;5069581;28;20465;-90
2022/07/06 11:34:42;;;;;;;0.80;0.70;;;25.80;67.30;;;;;;5077333;28;20488;-91
2022/07/06 11:37:10;;;;;;;0.50;0.50;;;25.70;68.10;;;;;;5077967;28;20554;-90
2022/07/06 11:39:40;;;;;;;0.57;0.57;;;25.40;67.20;;;;;;5075881;28;20965;-91
2022/07/06 11:42:08;;;;;;;0.87;0.60;;;25.30;66.30;;;;;;5077764;28;20495;-90
2022/07/06 11:44:36;;;;;;;0.60;0.60;;;25.10;67.40;;;;;;5074223;28;20519;-91
2022/07/06 11:47:04;;;;;;;0.97;0.60;;;24.80;68.10;;;;;;5078896;28;20506;-91
2022/07/06 11:49:32;;;;;;;0.70;0.70;;;25.10;70.20;;;;;;5070033;28;20852;-90
2022/07/06 11:52:00;;;;;;;0.70;0.50;;;25.50;70.80;;;;;;5075446;28;20471;-90
2022/07/06 11:54:28;;;;;;;3.63;0.70;;;25.60;68.10;;;;;;5075379;28;20495;-89
2022/07/06 11:56:58;;;;;;;0.70;0.70;;;25.90;68.20;;;;;;5069075;28;20858;-89
2022/07/06 11:59:26;;;;;;;0.67;0.67;;;26.00;67.00;;;;;;5074815;28;20985;-90
2022/07/06 12:01:59;;;;;;;0.60;0.60;;;26.20;71.50;;;;;;5082732;28;20533;-91
2022/07/06 12:04:27;;;;;;;0.60;0.60;;;26.20;67.90;;;;;;5077508;28;20491;-90
2022/07/06 12:06:54;;;;;;;0.90;0.70;;;26.30;67.60;;;;;;5077245;28;20519;-89
2022/07/06 12:09:23;;;;;;;1.10;0.80;;;26.30;64.80;;;;;;5086863;28;20467;-90
2022/07/06 12:11:50;;;;;;;0.50;0.40;;;26.10;64.70;;;;;;5080928;28;20793;-89
2022/07/06 12:14:19;;;;;;;0.90;0.60;;;26.00;61.50;;;;;;5078428;28;20560;-90
2022/07/06 12:16:48;;;;;;;0.63;0.63;;;26.20;61.80;;;;;;5074563;28;20701;-90
2022/07/06 12:19:16;;;;;;;0.70;0.70;;;26.20;65.20;;;;;;5086168;28;20458;-88
2022/07/06 12:21:44;;;;;;;0.60;0.60;;;25.90;64.40;;;;;;5075501;28;20474;-88
2022/07/06 12:24:17;;;;;;;0.60;0.60;;;26.40;62.90;;;;;;5074291;28;20851;-89
2022/07/06 12:26:46;;;;;;;0.60;0.50;;;26.30;65.00;;;;;;5080599;28;20532;-89
2022/07/06 12:29:14;;;;;;;1.00;0.80;;;26.20;64.70;;;;;;5078575;28;21109;-89
2022/07/06 12:31:42;;;;;;;1.27;1.17;;;26.00;63.50;;;;;;5072558;28;20463;-88
2022/07/06 12:34:14;;;;;;;0.80;0.80;;;26.00;66.10;;;;;;5071727;28;20528;-89
2022/07/06 12:36:46;;;;;;;0.70;0.60;;;25.70;63.50;;;;;;5076787;28;20463;-90
2022/07/06 12:39:14;;;;;;;2.80;0.50;;;25.70;65.30;;;;;;5079890;28;20483;-90
2022/07/06 12:41:47;;;;;;;0.60;0.60;;;26.20;61.70;;;;;;5080662;28;20499;-90
2022/07/06 12:44:16;;;;;;;0.80;0.80;;;26.20;64.10;;;;;;5095561;28;20472;-91
2022/07/06 12:46:43;;;;;;;0.53;0.53;;;25.50;62.90;;;;;;5083779;28;20462;-91
2022/07/06 12:49:19;;;;;;;1.43;1.33;;;24.90;66.20;;;;;;5091233;28;20459;-91
2022/07/06 12:51:54;;;;;;;1.90;0.63;;;25.20;65.30;;;;;;5088718;28;20466;-90
2022/07/06 12:54:21;;;;;;;0.60;0.60;;;25.70;66.00;;;;;;5081708;28;20544;-91
2022/07/06 12:57:14;;;;;;;0.63;0.63;;;26.30;63.70;;;;;;5078123;28;20469;-90